Terminal Aerodrome Forecast
Issued by NWS

Home | Current Version | Previous Version | Text Only | Print | Product List | Glossary On
Versions: 1 2 3 4 5 6 7 8 9 10 11 12 13 14 15
000
FTUS42 TJSJ 250533
TAFNCM
TAF
TNCM 250533Z 2506/2606 08009KT P6SM -SHRA VCSH BKN016
      TEMPO 2506/2509 VRB12G20KT 3SM +SHRA BKN016 BKN035
     FM251450 08015KT P6SM SCT020 SCT040
     FM252300 07010KT P6SM SCT018 SCT022=

USA.gov is the U.S. government's official web portal to all federal, state and local government web resources and services.